createdAt,value
2022-12-23T00:00:44.323Z,99261.47
2022-12-23T00:03:12.159Z,99262.81
2022-12-23T00:05:40.044Z,99258.88
2022-12-23T00:08:08.125Z,99257.94
2022-12-23T00:10:39.609Z,99255.72
2022-12-23T00:13:26.411Z,99256.25
2022-12-23T00:16:03.321Z,99242.25
2022-12-23T00:18:30.807Z,99245.84
2022-12-23T00:21:04.797Z,99248.00
2022-12-23T00:23:37.331Z,99239.38
2022-12-23T00:26:05.644Z,99253.09
2022-12-23T00:28:32.895Z,99258.94
2022-12-23T00:31:02.598Z,99255.53
2022-12-23T00:33:33.208Z,99263.97
2022-12-23T00:36:01.355Z,99258.56
2022-12-23T00:38:47.115Z,99262.44
2022-12-23T00:41:37.179Z,99265.78
2022-12-23T00:44:05.236Z,99266.47
2022-12-23T00:46:32.506Z,99266.47
2022-12-23T00:49:17.905Z,99269.63
2022-12-23T00:51:45.100Z,99261.06
2022-12-23T00:54:12.172Z,99278.19
2022-12-23T00:56:39.038Z,99268.19
2022-12-23T00:59:06.654Z,99262.63
2022-12-23T01:01:52.071Z,99264.72
2022-12-23T01:04:38.941Z,99265.06
2022-12-23T01:07:07.614Z,99267.63
2022-12-23T01:09:34.745Z,99264.47
2022-12-23T01:12:01.814Z,99266.91
2022-12-23T01:14:29.621Z,99268.66
2022-12-23T01:16:56.573Z,99267.31
2022-12-23T01:19:23.626Z,99284.09
2022-12-23T01:21:50.531Z,99282.63
2022-12-23T01:24:17.567Z,99287.16
2022-12-23T01:26:44.531Z,99286.84
2022-12-23T01:29:11.435Z,99294.09
2022-12-23T01:31:38.556Z,99302.56
2022-12-23T01:34:05.757Z,99288.47
2022-12-23T01:36:32.645Z,99290.34
2022-12-23T01:38:59.547Z,99312.59
2022-12-23T01:41:51.350Z,99315.66
2022-12-23T01:44:51.606Z,99322.47
2022-12-23T01:47:53.400Z,99323.25
2022-12-23T01:50:33.369Z,99326.41
2022-12-23T01:53:21.780Z,99340.84
2022-12-23T01:56:03.612Z,99349.56
2022-12-23T01:58:35.580Z,99362.44
2022-12-23T02:01:21.559Z,99360.47
2022-12-23T02:03:53.461Z,99383.06
2022-12-23T02:06:44.188Z,99375.25
2022-12-23T02:09:30.400Z,99392.63
2022-12-23T02:12:29.131Z,99395.69
2022-12-23T02:15:48.845Z,99394.00
2022-12-23T02:18:51.901Z,99397.09
2022-12-23T02:21:40.276Z,99407.50
2022-12-23T02:24:44.558Z,99417.28
2022-12-23T02:27:32.490Z,99424.69
2022-12-23T02:30:24.072Z,99425.69
2022-12-23T02:33:46.756Z,99432.91
2022-12-23T02:36:50.050Z,99430.31
2022-12-23T02:39:43.042Z,99432.00
2022-12-23T02:42:17.435Z,99428.31
2022-12-23T02:45:01.448Z,99440.59
2022-12-23T02:47:50.833Z,99438.28
2022-12-23T02:50:29.655Z,99439.09
2022-12-23T02:53:02.993Z,99445.00
2022-12-23T02:55:35.179Z,99451.66
2022-12-23T02:58:08.422Z,99449.06
2022-12-23T03:00:37.581Z,99457.88
2022-12-23T03:03:04.908Z,99458.78
2022-12-23T03:05:35.311Z,99464.81
2022-12-23T03:08:06.205Z,99472.81
2022-12-23T03:10:52.175Z,99470.66
2022-12-23T03:14:00.128Z,99471.03
2022-12-23T03:17:06.176Z,99475.66
2022-12-23T03:19:41.836Z,99471.50
2022-12-23T03:22:51.580Z,99477.34
2022-12-23T03:25:41.047Z,99472.69
2022-12-23T03:28:21.604Z,99465.44
2022-12-23T03:30:53.262Z,99473.59
2022-12-23T03:33:31.843Z,99480.47
2022-12-23T03:36:07.024Z,99491.63
2022-12-23T03:38:38.080Z,99491.97
2022-12-23T03:41:33.531Z,99498.47
2022-12-23T03:44:20.317Z,99501.25
2022-12-23T03:46:56.626Z,99500.97
2022-12-23T03:49:33.854Z,99505.09
2022-12-23T03:52:17.274Z,99509.69
2022-12-23T03:54:55.672Z,99511.84
2022-12-23T03:57:42.123Z,99517.78
2022-12-23T04:00:10.314Z,99528.78
2022-12-23T04:02:49.864Z,99528.59
2022-12-23T04:05:43.083Z,99523.38
2022-12-23T04:08:26.150Z,99526.97
2022-12-23T04:10:53.333Z,99531.75
2022-12-23T04:13:20.262Z,99516.44
2022-12-23T04:15:47.515Z,99520.66
2022-12-23T04:18:16.241Z,99526.56
2022-12-23T04:20:43.302Z,99546.19
2022-12-23T04:23:10.278Z,99544.56
2022-12-23T04:25:37.825Z,99549.84
2022-12-23T04:28:05.059Z,99543.94
2022-12-23T04:30:34.645Z,99542.59
2022-12-23T04:33:02.745Z,99547.44
2022-12-23T04:35:30.459Z,99551.59
2022-12-23T04:37:57.376Z,99560.69
2022-12-23T04:40:24.410Z,99577.59
2022-12-23T04:42:51.347Z,99566.97
2022-12-23T04:45:18.333Z,99581.09
2022-12-23T04:47:45.286Z,99576.50
2022-12-23T04:50:16.687Z,99572.63
2022-12-23T04:52:44.444Z,99566.44
2022-12-23T04:55:11.974Z,99568.59
2022-12-23T04:57:38.963Z,99561.56
2022-12-23T05:00:06.835Z,99571.88
2022-12-23T05:02:33.876Z,99567.28
2022-12-23T05:05:00.908Z,99558.19
2022-12-23T05:07:27.795Z,99549.69
2022-12-23T05:09:54.666Z,99547.75
2022-12-23T05:12:21.551Z,99544.34
2022-12-23T05:14:48.511Z,99542.53
2022-12-23T05:17:15.373Z,99541.19
2022-12-23T05:19:42.307Z,99545.16
2022-12-23T05:22:09.211Z,99542.94
2022-12-23T05:24:36.145Z,99553.25
2022-12-23T05:27:03.221Z,99572.69
2022-12-23T05:29:30.080Z,99573.94
2022-12-23T05:31:56.998Z,99553.19
2022-12-23T05:34:23.999Z,99547.31
2022-12-23T05:36:51.023Z,99557.66
2022-12-23T05:39:17.940Z,99555.38
2022-12-23T05:41:45.841Z,99551.53
2022-12-23T05:44:12.689Z,99547.88
2022-12-23T05:46:39.647Z,99544.09
2022-12-23T05:49:06.645Z,99559.53
2022-12-23T05:51:33.620Z,99549.50
2022-12-23T05:54:00.555Z,99545.72
2022-12-23T05:56:27.418Z,99549.59
2022-12-23T05:58:54.405Z,99540.34
2022-12-23T06:01:21.394Z,99539.34
2022-12-23T06:03:48.477Z,99538.84
2022-12-23T06:06:15.640Z,99541.56
2022-12-23T06:08:42.619Z,99535.44
2022-12-23T06:11:09.569Z,99545.06
2022-12-23T06:13:36.553Z,99543.88
2022-12-23T06:16:03.738Z,99551.25
2022-12-23T06:18:30.656Z,99549.59
2022-12-23T06:20:57.529Z,99553.88
2022-12-23T06:23:24.466Z,99558.72
2022-12-23T06:25:59.938Z,99566.91
2022-12-23T06:28:27.706Z,99570.97
2022-12-23T06:30:58.246Z,99572.06
2022-12-23T06:33:25.469Z,99575.69
2022-12-23T06:35:52.354Z,99573.44
2022-12-23T06:38:19.344Z,99578.53
2022-12-23T06:40:46.367Z,99590.47
2022-12-23T06:43:13.559Z,99589.47
2022-12-23T06:45:41.643Z,99584.09
2022-12-23T06:48:08.609Z,99595.41
2022-12-23T06:50:35.535Z,99601.50
2022-12-23T06:53:02.468Z,99608.47
2022-12-23T06:55:29.537Z,99603.94
2022-12-23T06:57:56.526Z,99601.28
2022-12-23T07:00:23.568Z,99610.47
2022-12-23T07:02:50.629Z,99609.53
2022-12-23T07:05:17.646Z,99607.41
2022-12-23T07:07:44.536Z,99611.31
2022-12-23T07:10:11.483Z,99596.00
2022-12-23T07:12:39.027Z,99602.41
2022-12-23T07:15:08.151Z,99609.84
2022-12-23T07:17:35.267Z,99602.06
2022-12-23T07:20:02.331Z,99599.63
2022-12-23T07:22:29.306Z,99592.09
2022-12-23T07:24:56.220Z,99587.69
2022-12-23T07:27:23.208Z,99589.84
2022-12-23T07:29:50.211Z,99598.16
2022-12-23T07:32:17.126Z,99596.66
2022-12-23T07:34:44.028Z,99593.28
2022-12-23T07:37:10.964Z,99594.41
2022-12-23T07:39:38.602Z,99595.38
2022-12-23T07:44:52.367Z,99598.19
2022-12-23T07:47:19.300Z,99593.94
2022-12-23T07:49:46.276Z,99600.09
2022-12-23T07:52:13.143Z,99599.91
2022-12-23T07:54:40.081Z,99603.03
2022-12-23T07:57:07.122Z,99608.88
2022-12-23T07:59:34.039Z,99614.72
2022-12-23T08:02:01.099Z,99602.56
2022-12-23T08:04:28.273Z,99606.53
2022-12-23T08:06:55.303Z,99608.47
2022-12-23T08:09:22.284Z,99608.72
2022-12-23T08:11:49.181Z,99607.78
2022-12-23T08:14:16.107Z,99612.19
2022-12-23T08:16:44.302Z,99604.66
2022-12-23T08:19:11.497Z,99615.63
2022-12-23T08:21:38.385Z,99601.22
2022-12-23T08:24:05.673Z,99596.34
2022-12-23T08:26:33.216Z,99586.88
2022-12-23T08:29:00.731Z,99589.38
2022-12-23T08:31:31.910Z,99593.38
2022-12-23T08:34:01.081Z,99602.84
2022-12-23T08:36:32.750Z,99601.13
2022-12-23T08:39:05.808Z,99602.22
2022-12-23T08:41:39.170Z,99593.63
2022-12-23T08:44:06.471Z,99605.53
2022-12-23T08:46:34.369Z,99598.22
2022-12-23T08:49:01.578Z,99610.44
2022-12-23T08:51:29.458Z,99607.06
2022-12-23T08:54:01.084Z,99610.31
2022-12-23T08:56:32.492Z,99614.00
2022-12-23T08:59:00.097Z,99606.66
2022-12-23T09:01:30.395Z,99597.53
2022-12-23T09:03:57.559Z,99606.91
2022-12-23T09:06:31.785Z,99595.75
2022-12-23T09:08:59.841Z,99600.03
2022-12-23T09:11:29.222Z,99597.53
2022-12-23T09:13:58.732Z,99605.06
2022-12-23T09:16:26.402Z,99600.47
2022-12-23T09:18:53.453Z,99603.28
2022-12-23T09:21:23.061Z,99602.44
2022-12-23T09:23:50.807Z,99598.34
2022-12-23T09:26:27.272Z,99603.13
2022-12-23T09:28:54.754Z,99598.28
2022-12-23T09:31:22.946Z,99601.53
2022-12-23T09:33:52.983Z,99591.53
2022-12-23T09:36:21.656Z,99592.00
2022-12-23T09:38:54.713Z,99590.09
2022-12-23T09:41:55.261Z,99586.03
2022-12-23T09:44:43.147Z,99587.69
2022-12-23T09:47:22.165Z,99580.66
2022-12-23T09:50:00.871Z,99590.56
2022-12-23T09:53:04.395Z,99585.50
2022-12-23T09:55:49.279Z,99590.91
2022-12-23T09:59:03.495Z,99591.72
2022-12-23T10:01:47.680Z,99592.53
2022-12-23T10:04:32.781Z,99586.38
2022-12-23T10:07:05.544Z,99580.50
2022-12-23T10:09:38.934Z,99570.78
2022-12-23T10:12:39.523Z,99560.84
2022-12-23T10:15:31.145Z,99553.91
2022-12-23T10:18:06.888Z,99549.78
2022-12-23T10:20:52.020Z,99549.06
2022-12-23T10:23:33.413Z,99543.66
2022-12-23T10:26:07.308Z,99545.59
2022-12-23T10:28:34.402Z,99546.13
2022-12-23T10:31:30.949Z,99547.34
2022-12-23T10:34:14.638Z,99531.19
2022-12-23T10:37:01.036Z,99534.91
2022-12-23T10:39:53.513Z,99525.75
2022-12-23T10:42:46.183Z,99530.81
2022-12-23T10:45:45.657Z,99523.38
2022-12-23T10:48:31.517Z,99520.75
2022-12-23T10:51:03.630Z,99519.25
2022-12-23T10:53:40.897Z,99510.44
2022-12-23T10:56:08.927Z,99512.47
2022-12-23T10:58:45.387Z,99506.72
2022-12-23T11:01:24.108Z,99505.84
2022-12-23T11:04:13.465Z,99500.97
2022-12-23T11:07:10.650Z,99500.19
2022-12-23T11:09:42.556Z,99500.00
2022-12-23T11:12:12.690Z,99494.84
2022-12-23T11:14:51.642Z,99473.72
2022-12-23T11:17:35.124Z,99478.38
2022-12-23T11:20:29.289Z,99475.41
2022-12-23T11:23:02.497Z,99473.78
2022-12-23T11:25:43.297Z,99471.72
2022-12-23T11:28:22.028Z,99465.50
2022-12-23T11:31:08.223Z,99468.66
2022-12-23T11:33:46.658Z,99457.59
2022-12-23T11:36:13.462Z,99458.66
2022-12-23T11:39:09.691Z,99437.53
2022-12-23T11:41:47.515Z,99437.97
2022-12-23T11:44:30.979Z,99431.75
2022-12-23T11:46:58.167Z,99421.69
2022-12-23T11:49:31.394Z,99413.88
2022-12-23T11:52:18.828Z,99414.56
2022-12-23T11:55:06.988Z,99414.41
2022-12-23T11:57:46.209Z,99395.47
2022-12-23T12:00:27.393Z,99387.13
2022-12-23T12:02:59.073Z,99390.81
2022-12-23T12:05:41.524Z,99389.72
2022-12-23T12:08:21.698Z,99376.94
2022-12-23T12:10:53.183Z,99370.84
2022-12-23T12:13:45.683Z,99364.53
2022-12-23T12:16:35.690Z,99364.13
2022-12-23T12:19:19.245Z,99354.50
2022-12-23T12:21:47.585Z,99352.09
2022-12-23T12:24:33.185Z,99346.22
2022-12-23T12:27:06.096Z,99340.63
2022-12-23T12:29:51.693Z,99337.75
2022-12-23T12:32:53.114Z,99320.38
2022-12-23T12:35:24.149Z,99313.38
2022-12-23T12:38:05.258Z,99310.31
2022-12-23T12:40:57.942Z,99312.16
2022-12-23T12:43:34.893Z,99304.75
2022-12-23T12:46:23.665Z,99302.94
2022-12-23T12:49:10.816Z,99303.44
2022-12-23T12:51:58.246Z,99317.28
2022-12-23T12:54:44.293Z,99295.88
2022-12-23T12:57:23.172Z,99306.41
2022-12-23T12:59:58.575Z,99303.81
2022-12-23T13:02:47.002Z,99304.84
2022-12-23T13:05:54.275Z,99299.81
2022-12-23T13:08:50.403Z,99276.78
2022-12-23T13:11:54.309Z,99288.88
2022-12-23T13:14:45.242Z,99285.03
2022-12-23T13:17:27.369Z,99286.03
2022-12-23T13:20:09.084Z,99281.66
2022-12-23T13:22:37.812Z,99269.94
2022-12-23T13:25:32.733Z,99263.34
2022-12-23T13:28:20.791Z,99257.91
2022-12-23T13:31:16.300Z,99251.09
2022-12-23T13:34:30.341Z,99251.28
2022-12-23T13:37:26.198Z,99249.97
2022-12-23T13:40:35.038Z,99237.44
2022-12-23T13:43:14.692Z,99240.25
2022-12-23T13:45:42.598Z,99243.47
2022-12-23T13:48:18.071Z,99246.09
2022-12-23T13:50:58.529Z,99234.75
2022-12-23T13:53:47.770Z,99241.28
2022-12-23T13:56:35.425Z,99233.03
2022-12-23T13:59:02.308Z,99231.22
2022-12-23T14:01:52.494Z,99225.88
2022-12-23T14:04:33.356Z,99221.34
2022-12-23T14:07:17.317Z,99228.69
2022-12-23T14:09:54.369Z,99224.88
2022-12-23T14:12:31.438Z,99229.06
2022-12-23T14:15:49.579Z,99229.19
2022-12-23T14:19:18.625Z,99223.38
2022-12-23T14:22:03.297Z,99221.22
2022-12-23T14:24:42.917Z,99229.97
2022-12-23T14:27:50.361Z,99222.88
2022-12-23T14:30:30.529Z,99223.91
2022-12-23T14:33:25.818Z,99227.03
2022-12-23T14:36:26.791Z,99223.91
2022-12-23T14:39:33.510Z,99225.13
2022-12-23T14:42:05.940Z,99223.09
2022-12-23T14:44:37.411Z,99228.53
2022-12-23T14:47:35.319Z,99236.53
2022-12-23T14:50:40.563Z,99227.41
2022-12-23T14:53:31.250Z,99227.22
2022-12-23T14:56:16.887Z,99231.63
2022-12-23T14:59:05.229Z,99226.00
2022-12-23T15:01:48.382Z,99234.03
2022-12-23T15:04:44.520Z,99221.97
2022-12-23T15:07:43.180Z,99223.22
2022-12-23T15:10:26.388Z,99230.06
2022-12-23T15:12:58.599Z,99219.56
2022-12-23T15:15:29.818Z,99217.72
2022-12-23T15:18:13.080Z,99231.16
2022-12-23T15:20:40.877Z,99221.97
2022-12-23T15:23:16.655Z,99213.75
2022-12-23T15:25:49.093Z,99216.84
2022-12-23T15:28:21.065Z,99216.75
2022-12-23T15:30:53.117Z,99209.13
2022-12-23T15:36:11.633Z,99229.00
2022-12-23T15:38:39.625Z,99227.31
2022-12-23T15:41:15.928Z,99230.69
2022-12-23T15:43:43.831Z,99241.31
2022-12-23T15:46:23.464Z,99234.03
2022-12-23T15:48:54.230Z,99243.22
2022-12-23T15:52:06.376Z,99236.75
2022-12-23T15:54:34.931Z,99233.47
2022-12-23T15:57:04.095Z,99249.03
2022-12-23T15:59:38.428Z,99243.63
2022-12-23T16:02:58.468Z,99250.84
2022-12-23T16:05:05.416Z,99253.84
2022-12-23T16:07:41.421Z,99257.88
2022-12-23T16:10:20.520Z,99257.25
2022-12-23T16:12:51.816Z,99259.25
2022-12-23T16:15:33.195Z,99265.75
2022-12-23T16:18:28.488Z,99262.16
2022-12-23T16:21:02.499Z,99275.94
2022-12-23T16:23:36.251Z,99273.78
2022-12-23T16:26:04.296Z,99267.94
2022-12-23T16:28:44.880Z,99258.59
2022-12-23T16:31:17.503Z,99272.03
2022-12-23T16:33:45.390Z,99273.56
2022-12-23T16:36:27.587Z,99253.13
2022-12-23T16:39:11.719Z,99259.97
2022-12-23T16:41:38.681Z,99281.63
2022-12-23T16:44:05.764Z,99286.06
2022-12-23T16:46:38.297Z,99292.38
2022-12-23T16:49:10.981Z,99284.81
2022-12-23T16:51:39.732Z,99292.19
2022-12-23T16:54:12.363Z,99284.59
2022-12-23T16:56:40.732Z,99288.28
2022-12-23T16:59:07.893Z,99292.25
2022-12-23T17:01:41.664Z,99299.09
2022-12-23T17:04:09.105Z,99284.63
2022-12-23T17:06:36.762Z,99293.50
2022-12-23T17:09:05.600Z,99299.59
2022-12-23T17:11:45.869Z,99290.97
2022-12-23T17:14:22.104Z,99300.94
2022-12-23T17:16:50.550Z,99304.13
2022-12-23T17:19:25.242Z,99306.97
2022-12-23T17:22:01.129Z,99320.72
2022-12-23T17:24:28.700Z,99306.66
2022-12-23T17:26:59.130Z,99300.59
2022-12-23T17:29:26.130Z,99302.81
2022-12-23T17:31:53.492Z,99307.25
2022-12-23T17:34:24.054Z,99306.84
2022-12-23T17:36:51.644Z,99320.16
2022-12-23T17:39:20.849Z,99326.44
2022-12-23T17:41:48.669Z,99337.72
2022-12-23T17:44:17.692Z,99338.50
2022-12-23T17:46:46.353Z,99334.44
2022-12-23T17:49:13.340Z,99340.13
2022-12-23T17:51:40.553Z,99340.88
2022-12-23T17:54:20.788Z,99349.75
2022-12-23T17:56:47.794Z,99343.75
2022-12-23T17:59:15.368Z,99352.97
2022-12-23T18:01:42.514Z,99358.41
2022-12-23T18:04:09.425Z,99363.81
2022-12-23T18:06:36.341Z,99365.03
2022-12-23T18:09:03.335Z,99367.50
2022-12-23T18:11:41.894Z,99367.50
2022-12-23T18:14:19.277Z,99354.97
2022-12-23T18:16:46.489Z,99359.81
2022-12-23T18:19:20.273Z,99361.81
2022-12-23T18:21:47.693Z,99357.59
2022-12-23T18:24:14.720Z,99380.75
2022-12-23T18:26:41.943Z,99372.53
2022-12-23T18:29:08.883Z,99371.53
2022-12-23T18:31:37.535Z,99375.91
2022-12-23T18:34:04.591Z,99376.78
2022-12-23T18:36:33.902Z,99378.78
2022-12-23T18:39:00.987Z,99371.75
2022-12-23T18:41:28.323Z,99373.97
2022-12-23T18:43:55.397Z,99392.47
2022-12-23T18:46:22.670Z,99395.91
2022-12-23T18:48:49.827Z,99406.56
2022-12-23T18:51:20.441Z,99399.94
2022-12-23T18:53:48.264Z,99394.50
2022-12-23T18:56:20.052Z,99406.94
2022-12-23T18:58:47.534Z,99411.34
2022-12-23T19:01:16.645Z,99421.41
2022-12-23T19:03:44.588Z,99415.97
2022-12-23T19:06:14.785Z,99433.56
2022-12-23T19:08:42.868Z,99439.75
2022-12-23T19:11:20.236Z,99436.25
2022-12-23T19:13:47.773Z,99442.03
2022-12-23T19:16:19.131Z,99447.59
2022-12-23T19:18:47.850Z,99447.19
2022-12-23T19:21:17.527Z,99460.47
2022-12-23T19:23:44.586Z,99471.88
2022-12-23T19:26:14.844Z,99457.19
2022-12-23T19:28:42.598Z,99476.72
2022-12-23T19:31:15.876Z,99485.19
2022-12-23T19:33:46.379Z,99481.00
2022-12-23T19:36:20.153Z,99485.63
2022-12-23T19:38:47.438Z,99482.19
2022-12-23T19:41:14.495Z,99484.44
2022-12-23T19:43:45.676Z,99481.19
2022-12-23T19:46:14.353Z,99481.97
2022-12-23T19:48:41.354Z,99473.13
2022-12-23T19:51:13.962Z,99474.91
2022-12-23T19:53:42.010Z,99481.34
2022-12-23T19:56:14.252Z,99494.59
2022-12-23T19:58:43.887Z,99495.41
2022-12-23T20:01:20.764Z,99503.50
2022-12-23T20:03:49.235Z,99499.84
2022-12-23T20:06:21.015Z,99497.03
2022-12-23T20:08:48.905Z,99496.84
2022-12-23T20:11:26.203Z,99499.50
2022-12-23T20:13:55.384Z,99524.66
2022-12-23T20:16:23.007Z,99543.97
2022-12-23T20:18:50.427Z,99530.91
2022-12-23T20:21:17.740Z,99543.72
2022-12-23T20:23:44.721Z,99547.72
2022-12-23T20:26:16.191Z,99548.72
2022-12-23T20:28:43.400Z,99560.78
2022-12-23T20:31:17.476Z,99571.94
2022-12-23T20:33:46.241Z,99570.41
2022-12-23T20:36:15.739Z,99561.41
2022-12-23T20:38:45.667Z,99579.72
2022-12-23T20:41:16.861Z,99573.25
2022-12-23T20:43:56.865Z,99583.78
2022-12-23T20:46:31.519Z,99583.56
2022-12-23T20:48:58.518Z,99584.16
2022-12-23T20:51:26.100Z,99601.47
2022-12-23T20:53:56.342Z,99610.22
2022-12-23T20:56:27.503Z,99618.69
2022-12-23T20:58:55.190Z,99614.72
2022-12-23T21:01:35.169Z,99629.41
2022-12-23T21:04:15.718Z,99626.09
2022-12-23T21:06:44.210Z,99624.19
2022-12-23T21:09:14.510Z,99622.31
2022-12-23T21:11:45.499Z,99615.81
2022-12-23T21:14:13.154Z,99617.75
2022-12-23T21:16:41.221Z,99631.41
2022-12-23T21:19:14.414Z,99627.03
2022-12-23T21:21:41.427Z,99634.38
2022-12-23T21:24:10.705Z,99637.00
2022-12-23T21:26:37.777Z,99642.88
2022-12-23T21:29:07.306Z,99656.56
2022-12-23T21:31:38.055Z,99655.91
2022-12-23T21:34:05.585Z,99663.75
2022-12-23T21:36:36.838Z,99667.69
2022-12-23T21:39:06.038Z,99671.63
2022-12-23T21:41:37.617Z,99678.50
2022-12-23T21:44:05.399Z,99664.34
2022-12-23T21:46:32.646Z,99674.31
2022-12-23T21:49:00.394Z,99693.84
2022-12-23T21:51:39.733Z,99675.94
2022-12-23T21:54:09.630Z,99694.06
2022-12-23T21:56:36.798Z,99691.28
2022-12-23T21:59:07.965Z,99710.19
2022-12-23T22:01:35.427Z,99708.56
2022-12-23T22:04:02.722Z,99696.19
2022-12-23T22:06:33.684Z,99700.09
2022-12-23T22:09:00.568Z,99700.56
2022-12-23T22:11:31.603Z,99696.34
2022-12-23T22:14:00.322Z,99691.25
2022-12-23T22:16:29.252Z,99698.78
2022-12-23T22:18:58.245Z,99698.16
2022-12-23T22:21:27.871Z,99705.78
2022-12-23T22:23:56.455Z,99716.38
2022-12-23T22:26:28.141Z,99709.19
2022-12-23T22:28:57.619Z,99712.38
2022-12-23T22:31:39.803Z,99721.19
2022-12-23T22:34:08.596Z,99725.75
2022-12-23T22:36:35.707Z,99723.19
2022-12-23T22:39:03.407Z,99723.25
2022-12-23T22:41:31.184Z,99727.31
2022-12-23T22:43:59.142Z,99722.56
2022-12-23T22:46:26.936Z,99713.47
2022-12-23T22:48:54.254Z,99710.28
2022-12-23T22:51:28.384Z,99715.50
2022-12-23T22:53:56.670Z,99720.09
2022-12-23T22:56:25.624Z,99726.28
2022-12-23T22:58:53.993Z,99736.59
2022-12-23T23:01:32.881Z,99749.59
2022-12-23T23:04:02.453Z,99748.28
2022-12-23T23:06:37.552Z,99752.41
2022-12-23T23:09:07.269Z,99756.66
2022-12-23T23:11:34.293Z,99754.06
2022-12-23T23:14:01.531Z,99776.75
2022-12-23T23:16:28.619Z,99779.41
2022-12-23T23:18:55.860Z,99777.28
2022-12-23T23:21:23.016Z,99777.94
2022-12-23T23:23:50.139Z,99790.63
2022-12-23T23:26:19.008Z,99790.28
2022-12-23T23:28:46.830Z,99795.84
2022-12-23T23:31:44.743Z,99797.16
2022-12-23T23:34:01.271Z,99811.16
2022-12-23T23:36:28.166Z,99804.63
2022-12-23T23:38:55.199Z,99818.66
2022-12-23T23:41:23.572Z,99821.56
2022-12-23T23:43:51.934Z,99814.44
2022-12-23T23:46:19.098Z,99816.53
2022-12-23T23:48:46.039Z,99820.13
2022-12-23T23:51:13.009Z,99809.84
2022-12-23T23:53:40.394Z,99815.72
2022-12-23T23:56:08.401Z,99806.09
2022-12-23T23:58:36.684Z,99799.41
